Poplar Bluff, MO

5:11 PM CDT on September 19, 2014 (GMT -0500)
Walnut Ridge Regional | Change Station
CLOSE
Current Station
Airport
Location: Walnut Ridge,
Elevation: 272 ft
Nearby Weather Stations

Elev 272 ft 36.12 °N, 90.93 °W | Updated 16 minutes ago

Clear
Clear
81 °F
Feels Like 82 °F
N
6
Wind Variable Wind from SSE

Today
High -- | Low -- °F
--% Chance of Precip.
Yesterday
High -- | Low -- °F
Precip. -- in
6:47 AM 7:03 PM
Waning Crescent, 16% visible
Pressure 29.99 in
Visibility 10.0 miles
Clouds Few 4100 ft
Heat Index 82 °F
Dew Point 63 °F
Humidity 54%
Rainfall 0.00 in
Snow Depth Not available.
UV 2 out of 12
Pollen 7.40 out of 12
Air Quality Not available.
Flu Activity Not available.
METAR KARG 192155Z AUTO 15005KT 10SM FEW041 27/17 A2999 RMK AO1

More Conditions Fewer Conditions

Pressure 29.99 in
Visibility 10.0 miles
Clouds Few 4100 ft
Heat Index 82 °F
Dew Point 63 °F
Humidity 54%
Rainfall 0.00 in
Snow Depth Not available.
UV 2 out of 12
Pollen 7.40 out of 12
Air Quality Not available.
Flu Activity Not available.
METAR KARG 192155Z AUTO 15005KT 10SM FEW041 27/17 A2999 RMK AO1

More Conditions Fewer Conditions

10-Day Weather Forecast

Almanac

Astronomy

Sep. 19, 2014 Rise Set
Actual Time 6:47 AM CDT 7:03 PM CDT
Civil Twilight 6:21 AM CDT 7:29 PM CDT
Nautical Twilight 5:50 AM CDT 7:59 PM CDT
Astronomical Twilight 5:20 AM CDT 8:30 PM CDT
Moon 2:37 AM CDT 4:27 PM CDT
Length of Visible Light 13h 07m
Length of Day
12h 15m
Tomorrow will be 2m 20s shorter.
Waning Crescent, 16% of the Moon is Illuminated
Today
Waning Crescent
Sep 24
New
Oct 1
First Quarter
Oct 8
Full
Oct 15
Last Quarter

Today's Extremes

State Highs State Lows

Community

WunderPhotos

Upload Photos

1,754,719 photos uploaded!

WunderBlogs® & News

Nearby

Snow Depth

Station Depth Elevation
No new snow has been reported.

Earthquake Activity

City Distance Mag. Time & Date
No recent earthquake activity has been reported nearby.
Minimum magnitude displayed is 2.5.

Coastal Water Temperatures

Place Temperature
No Stations Reporting

Nearby Weather Stations